createdAt,value
2023-05-22T00:01:49.446Z,19.30
2023-05-22T00:04:21.381Z,19.30
2023-05-22T00:06:49.192Z,19.30
2023-05-22T00:09:16.160Z,19.40
2023-05-22T00:11:43.084Z,19.40
2023-05-22T00:14:09.795Z,19.40
2023-05-22T00:16:36.559Z,19.40
2023-05-22T00:19:03.847Z,19.40
2023-05-22T00:21:34.642Z,19.40
2023-05-22T00:24:04.549Z,19.40
2023-05-22T00:26:31.543Z,19.40
2023-05-22T00:28:58.254Z,19.40
2023-05-22T00:31:25.057Z,19.40
2023-05-22T00:33:51.931Z,19.30
2023-05-22T00:36:18.805Z,19.30
2023-05-22T00:38:46.231Z,19.30
2023-05-22T00:41:13.380Z,19.30
2023-05-22T00:43:40.271Z,19.20
2023-05-22T00:46:07.738Z,19.20
2023-05-22T00:48:34.490Z,19.20
2023-05-22T00:51:01.538Z,19.20
2023-05-22T00:53:30.431Z,19.20
2023-05-22T00:55:58.588Z,19.20
2023-05-22T00:58:26.948Z,19.10
2023-05-22T01:00:55.281Z,19.20
2023-05-22T01:03:27.026Z,19.10
2023-05-22T01:05:55.637Z,19.10
2023-05-22T01:08:22.424Z,19.10
2023-05-22T01:10:54.341Z,19.10
2023-05-22T01:13:29.728Z,19.10
2023-05-22T01:16:09.494Z,19.10
2023-05-22T01:19:04.881Z,19.10
2023-05-22T01:21:58.945Z,19.10
2023-05-22T01:24:47.128Z,19.10
2023-05-22T01:27:35.446Z,19.10
2023-05-22T01:30:35.787Z,19.00
2023-05-22T01:33:04.357Z,19.00
2023-05-22T01:35:33.475Z,18.90
2023-05-22T01:38:01.758Z,19.00
2023-05-22T01:40:29.161Z,18.90
2023-05-22T01:42:55.993Z,18.90
2023-05-22T01:45:22.804Z,18.90
2023-05-22T01:47:49.727Z,18.90
2023-05-22T01:50:16.724Z,18.90
2023-05-22T01:53:07.460Z,18.90
2023-05-22T01:55:40.419Z,18.90
2023-05-22T01:58:29.094Z,18.90
2023-05-22T02:00:57.645Z,18.90
2023-05-22T02:03:29.962Z,18.90
2023-05-22T02:05:59.908Z,18.90
2023-05-22T07:09:03.581Z,20.00
2023-05-22T07:11:30.345Z,20.10
2023-05-22T07:13:57.095Z,20.10
2023-05-22T07:16:23.884Z,20.10
2023-05-22T07:18:50.586Z,20.20
2023-05-22T07:21:17.334Z,20.20
2023-05-22T07:23:44.024Z,20.20
2023-05-22T07:26:10.823Z,20.30
2023-05-22T07:28:37.513Z,20.30
2023-05-22T07:31:04.239Z,20.30
2023-05-22T07:33:30.932Z,20.40
2023-05-22T07:35:57.630Z,20.40
2023-05-22T07:38:24.507Z,20.40
2023-05-22T07:40:51.157Z,20.60
2023-05-22T07:43:17.849Z,20.70
2023-05-22T07:45:44.600Z,20.90
2023-05-22T07:48:11.837Z,21.00
2023-05-22T07:50:38.666Z,21.20
2023-05-22T07:53:06.469Z,21.40
2023-05-22T07:55:33.248Z,21.50
2023-05-22T07:57:59.960Z,21.60
2023-05-22T08:00:27.237Z,21.80
2023-05-22T08:02:53.945Z,21.70
2023-05-22T08:05:20.807Z,21.70
2023-05-22T08:07:47.843Z,21.80
2023-05-22T08:10:15.830Z,21.80
2023-05-22T08:12:42.894Z,21.70
2023-05-22T08:15:10.233Z,21.70
2023-05-22T08:17:37.532Z,21.60
2023-05-22T08:20:05.630Z,21.50
2023-05-22T08:22:32.628Z,21.50
2023-05-22T08:24:59.349Z,21.50
2023-05-22T08:27:26.335Z,21.50
2023-05-22T08:29:52.999Z,21.50
2023-05-22T08:32:19.758Z,21.50
2023-05-22T08:34:46.698Z,21.70
2023-05-22T08:37:15.024Z,21.80
2023-05-22T08:39:41.716Z,21.90
2023-05-22T08:42:08.502Z,22.00
2023-05-22T08:44:35.503Z,22.20
2023-05-22T08:47:04.273Z,22.30
2023-05-22T08:49:31.302Z,22.50
2023-05-22T08:52:05.691Z,22.60
2023-05-22T08:54:36.759Z,23.00
2023-05-22T08:57:04.491Z,23.50
2023-05-22T08:59:31.566Z,23.70
2023-05-22T09:01:58.479Z,23.80
2023-05-22T09:04:28.182Z,24.00
2023-05-22T09:06:55.224Z,24.70
2023-05-22T09:09:21.953Z,25.00
2023-05-22T09:11:49.589Z,24.90
2023-05-22T09:14:16.371Z,24.80
2023-05-22T09:16:47.951Z,24.90
2023-05-22T09:19:15.259Z,24.90
2023-05-22T09:21:44.166Z,24.90
2023-05-22T09:24:11.475Z,24.90
2023-05-22T09:26:41.820Z,24.80
2023-05-22T09:29:09.509Z,24.90
2023-05-22T09:31:42.694Z,24.90
2023-05-22T09:34:11.128Z,25.10
2023-05-22T09:36:37.824Z,25.20
2023-05-22T09:39:04.851Z,25.40
2023-05-22T09:41:37.400Z,25.40
2023-05-22T09:44:12.853Z,25.30
2023-05-22T09:46:45.702Z,25.10
2023-05-22T09:49:15.712Z,24.80
2023-05-22T09:51:48.103Z,24.50
2023-05-22T09:54:16.147Z,24.40
2023-05-22T09:56:44.274Z,24.20
2023-05-22T09:59:13.727Z,23.90
2023-05-22T10:01:42.461Z,23.60
2023-05-22T10:04:14.136Z,23.60
2023-05-22T10:06:42.986Z,23.40
2023-05-22T10:09:19.320Z,23.20
2023-05-22T10:11:47.448Z,23.10
2023-05-22T10:14:15.808Z,23.10
2023-05-22T10:16:45.135Z,23.00
2023-05-22T10:19:12.915Z,23.00
2023-05-22T10:21:41.743Z,23.00
2023-05-22T10:24:09.593Z,23.10
2023-05-22T10:26:37.379Z,23.10
2023-05-22T10:29:19.283Z,23.20
2023-05-22T10:31:50.608Z,23.30
2023-05-22T10:34:31.647Z,23.50
2023-05-22T10:37:37.197Z,23.90
2023-05-22T10:40:13.051Z,24.10
2023-05-22T10:42:40.013Z,24.30
2023-05-22T10:45:11.126Z,24.60
2023-05-22T10:47:38.178Z,25.20
2023-05-22T10:50:11.596Z,25.80
2023-05-22T10:52:39.700Z,26.00
2023-05-22T10:55:10.878Z,26.30
2023-05-22T10:57:41.281Z,26.60
2023-05-22T11:00:15.936Z,26.60
2023-05-22T11:02:44.419Z,26.70
2023-05-22T11:05:21.519Z,26.70
2023-05-22T11:07:48.912Z,26.80
2023-05-22T11:10:26.275Z,26.70
2023-05-22T11:13:12.195Z,26.70
2023-05-22T11:15:45.382Z,26.60
2023-05-22T11:18:12.735Z,26.70
2023-05-22T11:20:39.983Z,26.90
2023-05-22T11:23:08.012Z,27.20
2023-05-22T11:25:37.338Z,27.50
2023-05-22T11:28:05.801Z,27.50
2023-05-22T11:30:33.794Z,27.70
2023-05-22T11:33:01.582Z,27.80
2023-05-22T11:35:28.931Z,27.70
2023-05-22T11:37:56.337Z,27.90
2023-05-22T11:40:25.574Z,27.90
2023-05-22T11:42:56.782Z,28.00
2023-05-22T11:45:23.984Z,28.10
2023-05-22T11:47:51.291Z,28.20
2023-05-22T11:50:29.419Z,28.30
2023-05-22T11:53:02.780Z,28.20
2023-05-22T11:55:29.530Z,28.20
2023-05-22T11:57:56.621Z,28.40
2023-05-22T12:00:23.529Z,28.50
2023-05-22T12:02:50.578Z,28.50
2023-05-22T12:05:20.243Z,28.50
2023-05-22T12:07:47.084Z,28.50
2023-05-22T12:10:15.392Z,28.20
2023-05-22T12:12:43.521Z,28.30
2023-05-22T12:15:10.594Z,28.50
2023-05-22T12:17:38.371Z,28.60
2023-05-22T12:20:07.026Z,28.50
2023-05-22T12:22:33.737Z,28.20
2023-05-22T12:25:00.434Z,28.10
2023-05-22T12:27:33.399Z,28.10
2023-05-22T12:30:10.534Z,28.10
2023-05-22T12:32:37.381Z,28.10
2023-05-22T12:35:04.359Z,28.30
2023-05-22T12:37:34.032Z,28.30
2023-05-22T12:40:03.185Z,28.20
2023-05-22T12:42:30.031Z,28.30
2023-05-22T12:44:58.106Z,28.00
2023-05-22T12:47:25.460Z,28.10
2023-05-22T12:49:52.618Z,28.20
2023-05-22T12:52:19.357Z,28.30
2023-05-22T12:54:46.158Z,28.50
2023-05-22T12:57:12.871Z,28.30
2023-05-22T12:59:39.551Z,28.30
2023-05-22T13:02:06.583Z,28.50
2023-05-22T13:04:33.763Z,28.40
2023-05-22T13:07:00.678Z,28.30
2023-05-22T13:09:27.488Z,28.20
2023-05-22T13:11:55.739Z,28.00
2023-05-22T13:14:22.601Z,27.50
2023-05-22T13:16:49.373Z,27.30
2023-05-22T13:19:16.421Z,27.10
2023-05-22T13:21:43.707Z,26.80
2023-05-22T13:24:10.881Z,26.70
2023-05-22T13:26:37.587Z,26.90
2023-05-22T13:29:04.372Z,27.10
2023-05-22T13:31:33.325Z,27.20
2023-05-22T13:34:02.367Z,27.50
2023-05-22T13:36:29.990Z,27.80
2023-05-22T13:38:57.025Z,28.00
2023-05-22T13:41:23.832Z,28.00
2023-05-22T13:43:50.514Z,28.10
2023-05-22T13:46:18.137Z,28.30
2023-05-22T13:48:44.924Z,28.20
2023-05-22T13:51:11.582Z,28.10
2023-05-22T13:53:38.552Z,27.80
2023-05-22T13:56:05.396Z,27.70
2023-05-22T13:58:32.143Z,27.60
2023-05-22T14:00:58.880Z,27.60
2023-05-22T14:03:25.721Z,27.60
2023-05-22T14:05:52.418Z,27.80
2023-05-22T14:08:19.333Z,27.90
2023-05-22T14:10:46.154Z,28.00
2023-05-22T14:13:12.832Z,28.10
2023-05-22T14:15:39.918Z,28.20
2023-05-22T14:18:06.812Z,28.20
2023-05-22T14:20:33.631Z,28.20
2023-05-22T14:23:00.370Z,28.20
2023-05-22T14:25:27.051Z,28.10
2023-05-22T14:27:53.773Z,27.90
2023-05-22T14:30:20.464Z,27.80
2023-05-22T14:32:47.458Z,27.50
2023-05-22T14:35:14.219Z,27.30
2023-05-22T14:37:40.894Z,27.00
2023-05-22T14:40:08.324Z,26.80
2023-05-22T14:42:36.109Z,26.70
2023-05-22T14:45:04.145Z,26.70
2023-05-22T14:47:30.921Z,26.60
2023-05-22T14:50:06.285Z,26.50
2023-05-22T14:52:44.255Z,26.30
2023-05-22T14:55:11.060Z,26.30
2023-05-22T14:57:37.782Z,26.20
2023-05-22T15:00:06.522Z,26.20
2023-05-22T15:02:33.369Z,26.20
2023-05-22T15:05:00.293Z,26.30
2023-05-22T15:07:35.973Z,26.30
2023-05-22T15:10:10.681Z,26.40
2023-05-22T15:12:37.397Z,26.50
2023-05-22T15:15:04.481Z,26.50
2023-05-22T15:17:31.238Z,26.50
2023-05-22T15:19:57.946Z,26.40
2023-05-22T15:22:24.681Z,26.30
2023-05-22T15:25:11.642Z,26.10
2023-05-22T15:27:39.343Z,26.00
2023-05-22T15:30:06.859Z,25.90
2023-05-22T15:32:33.676Z,25.80
2023-05-22T15:35:00.595Z,25.80
2023-05-22T15:37:29.150Z,25.70
2023-05-22T15:39:57.626Z,25.80
2023-05-22T15:42:24.621Z,25.70
2023-05-22T15:44:51.356Z,25.70
2023-05-22T15:47:17.997Z,25.70
2023-05-22T15:49:44.670Z,25.60
2023-05-22T15:52:11.321Z,25.50
2023-05-22T15:54:38.012Z,25.40
2023-05-22T15:57:05.000Z,25.30
2023-05-22T15:59:31.623Z,25.30
2023-05-22T16:01:58.299Z,25.10
2023-05-22T16:04:25.227Z,25.10
2023-05-22T16:06:51.893Z,24.90
2023-05-22T16:09:19.430Z,24.90
2023-05-22T16:11:46.503Z,24.90
2023-05-22T16:14:13.460Z,24.70
2023-05-22T16:16:40.797Z,24.60
2023-05-22T16:19:07.742Z,24.60
2023-05-22T16:21:34.482Z,24.50
2023-05-22T16:24:01.173Z,24.40
2023-05-22T16:26:27.891Z,24.40
2023-05-22T16:28:54.557Z,24.30
2023-05-22T16:31:21.237Z,24.30
2023-05-22T16:33:48.095Z,24.30
2023-05-22T16:36:14.867Z,24.20
2023-05-22T16:38:42.026Z,24.10
2023-05-22T16:41:08.754Z,24.10
2023-05-22T16:43:36.680Z,24.00
2023-05-22T16:46:03.472Z,24.00
2023-05-22T16:48:30.138Z,23.90
2023-05-22T16:50:56.763Z,23.90
2023-05-22T16:53:23.427Z,23.90
2023-05-22T16:55:50.051Z,23.80
2023-05-22T16:58:16.803Z,23.80
2023-05-22T17:00:43.759Z,23.70
2023-05-22T17:03:12.131Z,23.60
2023-05-22T17:05:39.640Z,23.60
2023-05-22T17:08:06.656Z,23.50
2023-05-22T17:10:33.376Z,23.40
2023-05-22T17:13:00.058Z,23.40
2023-05-22T17:15:26.790Z,23.20
2023-05-22T17:17:53.487Z,23.10
2023-05-22T17:20:23.063Z,23.10
2023-05-22T17:22:50.182Z,23.10
2023-05-22T17:25:17.000Z,23.00
2023-05-22T17:27:43.988Z,22.90
2023-05-22T17:30:11.356Z,22.90
2023-05-22T17:32:38.136Z,22.90
2023-05-22T17:35:06.518Z,22.70
2023-05-22T17:37:33.646Z,22.70
2023-05-22T17:40:00.440Z,22.70
2023-05-22T17:42:27.224Z,22.60
2023-05-22T17:44:53.979Z,22.50
2023-05-22T17:47:20.802Z,22.50
2023-05-22T17:49:47.486Z,22.30
2023-05-22T17:52:14.565Z,22.20
2023-05-22T17:54:41.426Z,22.10
2023-05-22T17:57:08.150Z,22.00
2023-05-22T17:59:34.857Z,22.00
2023-05-22T18:02:01.705Z,21.90
2023-05-22T18:04:28.461Z,21.80
2023-05-22T18:06:55.154Z,21.80
2023-05-22T18:09:21.972Z,21.70
2023-05-22T18:11:52.413Z,21.70
2023-05-22T18:14:19.357Z,21.60
2023-05-22T18:16:46.035Z,21.50
2023-05-22T18:19:12.731Z,21.40
2023-05-22T18:21:39.415Z,21.40
2023-05-22T18:24:06.251Z,21.20
2023-05-22T18:26:33.181Z,21.30
2023-05-22T18:28:59.816Z,21.20
2023-05-22T18:31:26.536Z,21.10
2023-05-22T18:33:53.257Z,21.10
2023-05-22T18:36:20.004Z,21.00
2023-05-22T18:38:46.683Z,20.90
2023-05-22T18:41:13.448Z,20.90
2023-05-22T18:43:40.617Z,20.90
2023-05-22T18:46:07.412Z,20.80
2023-05-22T18:48:34.086Z,20.70
2023-05-22T18:51:01.044Z,20.60
2023-05-22T18:53:27.859Z,20.50
2023-05-22T18:55:54.545Z,20.50
2023-05-22T18:58:21.602Z,20.50
2023-05-22T19:00:48.612Z,20.50
2023-05-22T19:03:15.439Z,20.40
2023-05-22T19:05:42.990Z,20.20
2023-05-22T19:08:09.821Z,20.20
2023-05-22T19:10:36.518Z,20.10
2023-05-22T19:13:03.900Z,20.00
2023-05-22T19:15:30.697Z,20.00
2023-05-22T19:17:57.596Z,19.90
2023-05-22T19:20:24.598Z,20.00
2023-05-22T19:22:51.499Z,19.90
2023-05-22T19:25:18.570Z,19.80
2023-05-22T19:27:45.881Z,19.70
2023-05-22T19:30:15.243Z,19.60
2023-05-22T19:32:43.507Z,19.50
2023-05-22T19:35:11.219Z,19.40
2023-05-22T19:37:38.121Z,19.40
2023-05-22T19:40:06.010Z,19.30
2023-05-22T19:42:32.983Z,19.30
2023-05-22T19:44:59.770Z,19.20
2023-05-22T19:47:27.201Z,19.20
2023-05-22T19:49:54.085Z,19.10
2023-05-22T19:52:20.818Z,19.10
2023-05-22T19:54:47.486Z,19.10
2023-05-22T19:57:15.337Z,19.00
2023-05-22T19:59:42.125Z,19.10
2023-05-22T20:02:08.820Z,19.00
2023-05-22T20:04:35.521Z,19.00
2023-05-22T20:07:03.741Z,19.00
2023-05-22T20:09:30.561Z,19.00
2023-05-22T20:11:57.274Z,19.00
2023-05-22T20:14:23.918Z,19.00
2023-05-22T20:16:51.379Z,19.00
2023-05-22T20:19:18.221Z,19.00
2023-05-22T20:21:44.928Z,19.00
2023-05-22T20:24:20.679Z,19.00
2023-05-22T20:26:47.505Z,19.00
2023-05-22T20:29:14.761Z,19.00
2023-05-22T20:31:41.553Z,19.10
2023-05-22T20:34:09.535Z,19.10
2023-05-22T20:36:36.606Z,19.10
2023-05-22T20:39:03.597Z,19.10
2023-05-22T20:41:30.294Z,19.10
2023-05-22T20:43:58.524Z,19.10
2023-05-22T20:46:26.550Z,19.10
2023-05-22T20:48:53.732Z,19.00
2023-05-22T20:51:20.684Z,19.00
2023-05-22T20:53:48.457Z,19.00
2023-05-22T20:56:15.206Z,19.00
2023-05-22T20:58:42.479Z,18.90
2023-05-22T21:01:09.693Z,18.80
2023-05-22T21:03:36.676Z,18.80
2023-05-22T21:06:03.489Z,18.80
2023-05-22T21:08:30.224Z,18.80
2023-05-22T21:10:56.948Z,18.70
2023-05-22T21:13:23.685Z,18.70
2023-05-22T21:15:50.426Z,18.80
2023-05-22T21:18:17.157Z,18.70
2023-05-22T21:20:43.828Z,18.60
2023-05-22T21:23:11.175Z,18.50
2023-05-22T21:25:38.048Z,18.50
2023-05-22T21:28:04.801Z,18.50
2023-05-22T21:30:31.733Z,18.40
2023-05-22T21:32:58.488Z,18.30
2023-05-22T21:35:25.520Z,18.30
2023-05-22T21:37:53.236Z,18.20
2023-05-22T21:40:20.083Z,18.20
2023-05-22T21:42:47.481Z,18.20
2023-05-22T21:45:14.519Z,18.20
2023-05-22T21:47:41.649Z,18.00
2023-05-22T21:50:08.714Z,17.90
2023-05-22T21:52:35.606Z,17.90
2023-05-22T21:55:02.511Z,18.00
2023-05-22T21:57:29.397Z,17.90
2023-05-22T21:59:56.080Z,17.80
2023-05-22T22:02:22.896Z,17.70
2023-05-22T22:04:49.737Z,17.70
2023-05-22T22:07:16.504Z,17.80
2023-05-22T22:09:43.265Z,17.70
2023-05-22T22:12:09.987Z,17.50
2023-05-22T22:14:36.696Z,17.40
2023-05-22T22:17:05.660Z,17.50
2023-05-22T22:19:34.302Z,17.40
2023-05-22T22:22:01.736Z,17.40
2023-05-22T22:24:29.257Z,17.30
2023-05-22T22:26:56.671Z,17.20
2023-05-22T22:29:23.377Z,17.30
2023-05-22T22:31:50.205Z,17.30
2023-05-22T22:34:16.968Z,17.30
2023-05-22T22:36:43.728Z,17.30
2023-05-22T22:39:11.129Z,17.20
2023-05-22T22:41:38.019Z,17.20
2023-05-22T22:44:04.725Z,17.20
2023-05-22T22:46:32.196Z,17.10
2023-05-22T22:49:01.740Z,17.10
2023-05-22T22:51:30.821Z,17.10
2023-05-22T22:53:58.378Z,17.10
2023-05-22T22:56:29.155Z,17.00
2023-05-22T22:58:57.077Z,17.10
2023-05-22T23:01:24.435Z,17.10
2023-05-22T23:03:51.500Z,17.10
2023-05-22T23:06:18.466Z,17.10
2023-05-22T23:08:45.640Z,17.10
2023-05-22T23:11:12.453Z,17.10
2023-05-22T23:13:41.063Z,17.00
2023-05-22T23:16:08.098Z,16.90
2023-05-22T23:18:35.135Z,17.00
2023-05-22T23:21:01.818Z,16.90
2023-05-22T23:23:28.462Z,16.80
2023-05-22T23:25:56.754Z,16.90
2023-05-22T23:28:25.589Z,16.90
2023-05-22T23:30:52.891Z,16.90
2023-05-22T23:33:19.772Z,16.90
2023-05-22T23:35:46.554Z,16.90
2023-05-22T23:38:13.285Z,16.90
2023-05-22T23:40:40.005Z,16.80
2023-05-22T23:43:06.843Z,16.70
2023-05-22T23:45:33.500Z,16.80
2023-05-22T23:48:00.254Z,16.80
2023-05-22T23:50:26.988Z,16.80
2023-05-22T23:52:54.140Z,16.80
2023-05-22T23:55:20.976Z,16.80
2023-05-22T23:57:47.705Z,16.70
